FERNANDINA BEACH, FL - 132

GPS Positions

GPS Time
Latitude
Degrees
Longitude
Degrees
Gap
 
Distance
NM
Speed
Knots
Direction
Degrees
Apr 18, 03:11 30.70933° -81.29197° 2 min 0.02 0.04
296°
Apr 18, 03:09 30.70932° -81.29195° 8 min 0.02 0.01
319°
Apr 18, 03:01 30.70930° -81.29192° 2 min 0.02 0.04
180°
Apr 18, 02:59 30.70932° -81.29192° 8 min 0.02 0.01
330°
Apr 18, 02:51 30.70930° -81.29191° 2 min 0.02 0.05
150°
Apr 18, 02:49 30.70932° -81.29192° 8 min 0.02 0.01
Apr 18, 02:41 30.70930° -81.29192° 2 min 0.02 0.04
Apr 18, 02:39 30.70928° -81.29192° 8 min 0.02 0.01
270°
Apr 18, 02:31 30.70928° -81.29191° 2 min 0.02 0.00
Apr 18, 02:29 30.70928° -81.29191° 8 min 0.02 0.01
270°
Apr 18, 02:21 30.70928° -81.29189° 2 min 0.02 0.00
Apr 18, 02:19 30.70928° -81.29189° 8 min 0.02 0.00
Apr 18, 02:11 30.70928° -81.29189° 2 min 0.02 0.00
Apr 18, 02:09 30.70928° -81.29189° 8 min 0.02 0.00
Apr 18, 02:01 30.70928° -81.29189° 1 min 0.02 0.04
300°
Apr 18, 01:59 30.70927° -81.29186° 8 min 0.02 0.00
Apr 18, 01:51 30.70927° -81.29186° 2 min 0.02 0.04
Apr 18, 01:49 30.70925° -81.29186° 8 min 0.02 0.01
180°
Apr 18, 01:41 30.70927° -81.29186° 2 min 0.02 0.00
Apr 18, 01:39 30.70927° -81.29186° 8 min 0.02 0.01
270°
Apr 18, 01:31 30.70927° -81.29184° 2 min 0.02 0.00
Apr 18, 01:29 30.70927° -81.29184° 8 min 0.02 0.01
317°
Apr 18, 01:21 30.70925° -81.29182° 2 min 0.02 0.04
90°
Apr 18, 01:19 30.70925° -81.29184° 8 min 0.02 0.01
270°
Apr 18, 01:11 30.70925° -81.29182° 2 min 0.02 0.02
Apr 18, 01:09 30.70923° -81.29182° 8 min 0.02 0.01
270°
Apr 18, 01:01 30.70923° -81.29180° 2 min 0.02 0.02
90°
Apr 18, 00:59 30.70923° -81.29182° 8 min 0.02 0.01
180°
Apr 18, 00:51 30.70925° -81.29182° 2 min 0.02 0.03
311°
Apr 18, 00:49 30.70923° -81.29180° 8 min 0.02 0.01
90°
Apr 18, 00:41 30.70923° -81.29182° 2 min 0.02 0.02
270°
Apr 18, 00:39 30.70923° -81.29180° 8 min 0.02 0.01
Apr 18, 00:31 30.70921° -81.29180° 2 min 0.02 0.04
180°
Apr 18, 00:29 30.70923° -81.29180° 8 min 0.02 0.01
90°
Apr 18, 00:21 30.70923° -81.29182° 2 min 0.02 0.03
229°
Apr 18, 00:19 30.70925° -81.29180° 8 min 0.02 0.00
Apr 18, 00:11 30.70925° -81.29180° 2 min 0.02 0.02
Apr 18, 00:09 30.70923° -81.29180° 8 min 0.02 0.01
131°
Apr 18, 00:01 30.70925° -81.29182° 2 min 0.02 0.00
Apr 17, 23:59 30.70925° -81.29182° 8 min 0.02 0.00
Apr 17, 23:51 30.70925° -81.29182° 2 min 0.02 0.00
Apr 17, 23:49 30.70925° -81.29182° 8 min 0.02 0.01
Apr 17, 23:41 30.70923° -81.29182° 2 min 0.02 0.04
328°
Apr 17, 23:39 30.70921° -81.29180° 8 min 0.02 0.01
148°
Apr 17, 23:31 30.70923° -81.29182° 2 min 0.02 0.00
Apr 17, 23:29 30.70923° -81.29182° 8 min 0.02 0.00
Apr 17, 23:21 30.70923° -81.29182° 2 min 0.02 0.04
120°
Apr 17, 23:19 30.70925° -81.29184° 8 min 0.02 0.01
180°
Apr 17, 23:11 30.70927° -81.29184° 2 min 0.02 0.05
317°
Apr 17, 23:09 30.70925° -81.29182° 8 min 0.02 0.01
137°
Apr 17, 23:01 30.70927° -81.29184° 2 min 0.02 0.00
Apr 17, 22:59 30.70927° -81.29184° 8 min 0.02 0.01
90°
Apr 17, 22:51 30.70927° -81.29186° 2 min 0.02 0.00
Apr 17, 22:49 30.70927° -81.29186° 8 min 0.02 0.01
180°
Apr 17, 22:41 30.70928° -81.29186° 2 min 0.02 0.02
Apr 17, 22:39 30.70927° -81.29186° 8 min 0.02 0.01
180°
Apr 17, 22:31 30.70928° -81.29186° 2 min 0.02 0.04
90°
Apr 17, 22:29 30.70928° -81.29189° 8 min 0.02 0.01
270°
Apr 17, 22:21 30.70928° -81.29186° 2 min 0.02 0.05
137°
Apr 17, 22:19 30.70930° -81.29189° 7 min 0.02 0.03
114°
Apr 17, 22:11 30.70932° -81.29195° 2 min 0.02 0.00
Apr 17, 22:09 30.70932° -81.29195° 8 min 0.02 0.00
180°
Apr 17, 22:01 30.70933° -81.29195° 2 min 0.02 0.04
90°
Apr 17, 21:59 30.70933° -81.29197° 8 min 0.02 0.01
296°
Apr 17, 21:51 30.70932° -81.29195° 2 min 0.02 0.02
180°
Apr 17, 21:49 30.70933° -81.29195° 8 min 0.02 0.02
90°
Apr 17, 21:41 30.70933° -81.29199° 2 min 0.02 0.00
Apr 17, 21:39 30.70933° -81.29199° 8 min 0.02 0.01
180°
Apr 17, 21:31 30.70935° -81.29199° 2 min 0.02 0.00
Apr 17, 21:29 30.70935° -81.29199° 8 min 0.02 0.00
Apr 17, 21:21 30.70935° -81.29199° 2 min 0.02 0.00
Apr 17, 21:19 30.70935° -81.29199° 8 min 0.02 0.01
43°
Apr 17, 21:11 30.70933° -81.29202° 2 min 0.02 0.04
180°
Apr 17, 21:09 30.70935° -81.29202° 8 min 0.02 0.01
Apr 17, 21:01 30.70933° -81.29202° 2 min 0.02 0.04
148°
Apr 17, 20:59 30.70935° -81.29203° 8 min 0.02 0.01
Apr 17, 20:51 30.70933° -81.29203° 2 min 0.02 0.04
180°
Apr 17, 20:49 30.70935° -81.29203° 8 min 0.02 0.00
Apr 17, 20:41 30.70935° -81.29203° 2 min 0.02 0.04
90°
Apr 17, 20:39 30.70935° -81.29205° 8 min 0.02 0.01
Apr 17, 20:31 30.70933° -81.29205° 2 min 0.02 0.04
90°
Apr 17, 20:29 30.70933° -81.29208° 8 min 0.02 0.00
Apr 17, 20:21 30.70933° -81.29208° 2 min 0.02 0.00
Apr 17, 20:19 30.70933° -81.29208° 8 min 0.02 0.00
Apr 17, 20:11 30.70933° -81.29208° 2 min 0.02 0.00
Apr 17, 20:09 30.70933° -81.29208° 8 min 0.02 0.00
Apr 17, 20:01 30.70933° -81.29208° 2 min 0.02 0.00
Apr 17, 19:59 30.70933° -81.29208° 8 min 0.02 0.00
Apr 17, 19:51 30.70933° -81.29208° 2 min 0.02 0.00
Apr 17, 19:49 30.70933° -81.29208° 8 min 0.02 0.01
90°
Apr 17, 19:41 30.70933° -81.29210° 2 min 0.02 0.00
Apr 17, 19:39 30.70933° -81.29210° 8 min 0.02 0.00
Apr 17, 19:31 30.70933° -81.29210° 2 min 0.02 0.00
Apr 17, 19:29 30.70933° -81.29210° 8 min 0.02 0.00
Apr 17, 19:21 30.70933° -81.29210° 2 min 0.02 0.00
Apr 17, 19:19 30.70933° -81.29210° 8 min 0.02 0.01
180°
Apr 17, 19:11 30.70935° -81.29210° 2 min 0.02 0.00
Apr 17, 19:09 30.70935° -81.29210° 8 min 0.02 0.00
Apr 17, 19:01 30.70935° -81.29210° 2 min 0.02 0.04
Apr 17, 18:59 30.70933° -81.29210° 8 min 0.02 0.01
90°
Apr 17, 18:51 30.70933° -81.29212° 2 min 0.02 0.05
223°
Apr 17, 18:49 30.70935° -81.29210° 7 min 0.02 0.01
Apr 17, 18:41 30.70933° -81.29210° 2 min 0.02 0.04
90°
Apr 17, 18:39 30.70933° -81.29212° 8 min 0.02 0.00
Apr 17, 18:31 30.70933° -81.29212° 2 min 0.02 0.00
Apr 17, 18:29 30.70933° -81.29212° 8 min 0.02 0.01
90°
Apr 17, 18:21 30.70933° -81.29214° 2 min 0.02 0.02
270°
Apr 17, 18:19 30.70933° -81.29212° 8 min 0.02 0.01
270°
Apr 17, 18:11 30.70933° -81.29210° 2 min 0.02 0.00
Apr 17, 18:09 30.70933° -81.29210° 8 min 0.02 0.00
Apr 17, 18:01 30.70933° -81.29210° 2 min 0.02 0.00
Apr 17, 17:59 30.70933° -81.29210° 8 min 0.02 0.01
180°
Apr 17, 17:51 30.70935° -81.29210° 2 min 0.02 0.04
Apr 17, 17:49 30.70933° -81.29210° 8 min 0.02 0.01
90°
Apr 17, 17:41 30.70933° -81.29212° 2 min 0.02 0.00
Apr 17, 17:39 30.70933° -81.29212° 8 min 0.02 0.01
90°
Apr 17, 17:31 30.70933° -81.29214° 2 min 0.02 0.00
Apr 17, 17:29 30.70933° -81.29214° 8 min 0.02 0.00
Apr 17, 17:21 30.70932° -81.29214° 2 min 0.02 0.04
90°
Apr 17, 17:19 30.70932° -81.29216° 8 min 0.02 0.00
Apr 17, 17:11 30.70932° -81.29216° 2 min 0.02 0.04
Apr 17, 17:09 30.70930° -81.29216° 8 min 0.02 0.00
Apr 17, 17:01 30.70930° -81.29216° 2 min 0.02 0.04
90°
Apr 17, 16:59 30.70930° -81.29218° 8 min 0.02 0.01
Apr 17, 16:51 30.70928° -81.29218° 2 min 0.02 0.05
137°
Apr 17, 16:49 30.70930° -81.29221° 8 min 0.02 0.01
Apr 17, 16:41 30.70928° -81.29221° 2 min 0.02 0.00
Apr 17, 16:39 30.70928° -81.29221° 8 min 0.02 0.01
270°
Apr 17, 16:31 30.70928° -81.29218° 2 min 0.02 0.04
180°
Apr 17, 16:29 30.70930° -81.29218° 8 min 0.02 0.01
43°
Apr 17, 16:21 30.70928° -81.29221° 2 min 0.02 0.05
223°
Apr 17, 16:19 30.70930° -81.29218° 8 min 0.02 0.01
Apr 17, 16:11 30.70928° -81.29218° 2 min 0.02 0.00
Apr 17, 16:09 30.70928° -81.29218° 8 min 0.02 0.00
Apr 17, 16:01 30.70928° -81.29218° 2 min 0.02 0.04
270°
Apr 17, 15:59 30.70928° -81.29216° 8 min 0.01 0.01
Apr 17, 15:51 30.70927° -81.29216° 2 min 0.01 0.00
Apr 17, 15:49 30.70927° -81.29216° 8 min 0.01 0.00
Apr 17, 15:41 30.70927° -81.29216° 2 min 0.01 0.02
180°
Apr 17, 15:39 30.70928° -81.29216° 7 min 0.01 0.02
289°
Apr 17, 15:31 30.70927° -81.29212° 2 min 0.01 0.02
180°
Apr 17, 15:29 30.70928° -81.29212° 8 min 0.01 0.02
270°
Apr 17, 15:21 30.70928° -81.29208° 2 min 0.01 0.04
270°
Apr 17, 15:19 30.70928° -81.29205° 8 min 0.01 0.02
289°
Apr 17, 15:11 30.70927° -81.29202° 2 min 0.01 0.00
Apr 17, 15:09 30.70927° -81.29202° 8 min 0.01 0.03
299°
Apr 17, 15:01 30.70923° -81.29195° 2 min 0.01 0.04
Apr 17, 14:59 30.70921° -81.29195° 8 min 0.01 0.04
320°
Apr 17, 14:51 30.70915° -81.29189° 2 min 0.01 0.02
Apr 17, 14:49 30.70914° -81.29189° 8 min 0.01 0.03
340°
Apr 17, 14:41 30.70909° -81.29186° 2 min 0.01 0.04
Apr 17, 14:39 30.70906° -81.29186° 8 min 0.01 0.01
296°
Apr 17, 14:31 30.70905° -81.29184° 2 min 0.01 0.02
180°
Apr 17, 14:29 30.70906° -81.29184° 8 min 0.01 0.01
Apr 17, 14:21 30.70903° -81.29184° 2 min 0.01 0.05
223°
Apr 17, 14:19 30.70905° -81.29182° 8 min 0.01 0.01
Apr 17, 14:11 30.70902° -81.29182° 2 min 0.01 0.00
Apr 17, 14:09 30.70902° -81.29182° 8 min 0.01 0.00
Apr 17, 14:01 30.70902° -81.29182° 2 min 0.01 0.04
Apr 17, 13:59 30.70900° -81.29182° 8 min 0.01 0.01
270°
Apr 17, 13:51 30.70900° -81.29180° 2 min 0.01 0.00
Apr 17, 13:49 30.70900° -81.29180° 8 min 0.01 0.01
Apr 17, 13:41 30.70899° -81.29180° 2 min 0.01 0.00
Apr 17, 13:39 30.70899° -81.29180° 8 min 0.01 0.01
180°
Apr 17, 13:31 30.70900° -81.29180° 2 min 0.01 0.00
Apr 17, 13:29 30.70900° -81.29180° 8 min 0.01 0.01
270°
Apr 17, 13:21 30.70900° -81.29178° 2 min 0.02 0.00
Apr 17, 13:19 30.70900° -81.29178° 8 min 0.02 0.01
180°
Apr 17, 13:11 30.70902° -81.29178° 2 min 0.02 0.00
Apr 17, 13:09 30.70902° -81.29178° 8 min 0.02 0.00
Apr 17, 13:01 30.70902° -81.29178° 2 min 0.02 0.00
Apr 17, 12:59 30.70902° -81.29178° 8 min 0.02 0.01
180°
Apr 17, 12:51 30.70903° -81.29178° 2 min 0.02 0.00
Apr 17, 12:49 30.70903° -81.29178° 8 min 0.02 0.01
Apr 17, 12:41 30.70902° -81.29178° 2 min 0.02 0.00
Apr 17, 12:39 30.70902° -81.29178° 8 min 0.02 0.01
Apr 17, 12:31 30.70900° -81.29178° 2 min 0.02 0.00
Apr 17, 12:29 30.70900° -81.29178° 8 min 0.02 0.00
Apr 17, 12:21 30.70900° -81.29178° 2 min 0.02 0.04
180°
Apr 17, 12:19 30.70902° -81.29178° 8 min 0.02 0.01
Apr 17, 12:11 30.70900° -81.29178° 2 min 0.02 0.00
Apr 17, 12:09 30.70900° -81.29178° 8 min 0.02 0.01
180°
Apr 17, 12:01 30.70902° -81.29178° 2 min 0.02 0.00
Apr 17, 11:59 30.70902° -81.29178° 8 min 0.02 0.01
180°
Apr 17, 11:51 30.70905° -81.29178° 2 min 0.02 0.06
180°
Apr 17, 11:49 30.70909° -81.29178° 7 min 0.02 0.01
Apr 17, 11:41 30.70906° -81.29178° 2 min 0.02 0.00
Apr 17, 11:39 30.70906° -81.29178° 8 min 0.02 0.00
Apr 17, 11:31 30.70906° -81.29178° 2 min 0.02 0.00
Apr 17, 11:29 30.70906° -81.29178° 8 min 0.02 0.01
180°
Apr 17, 11:21 30.70909° -81.29178° 2 min 0.02 0.00
Apr 17, 11:19 30.70909° -81.29178° 8 min 0.02 0.01
Apr 17, 11:11 30.70906° -81.29178° 2 min 0.02 0.04
180°
Apr 17, 11:09 30.70909° -81.29178° 8 min 0.02 0.00
180°
Apr 17, 11:01 30.70910° -81.29178° 2 min 0.02 0.04
180°
Apr 17, 10:59 30.70912° -81.29178° 8 min 0.02 0.00
Apr 17, 10:51 30.70912° -81.29178° 2 min 0.02 0.00
Apr 17, 10:49 30.70912° -81.29178° 8 min 0.02 0.01
Apr 17, 10:41 30.70910° -81.29178° 2 min 0.02 0.00
Apr 17, 10:39 30.70910° -81.29178° 8 min 0.02 0.01
180°
Apr 17, 10:31 30.70912° -81.29178° 2 min 0.02 0.00
Apr 17, 10:29 30.70912° -81.29178° 8 min 0.02 0.01
180°
Apr 17, 10:21 30.70915° -81.29178° 2 min 0.02 0.00
Apr 17, 10:19 30.70915° -81.29178° 8 min 0.02 0.00
Apr 17, 10:11 30.70915° -81.29178° 2 min 0.02 0.00
Apr 17, 10:09 30.70915° -81.29178° 8 min 0.02 0.01
180°
Apr 17, 10:01 30.70917° -81.29178° 2 min 0.02 0.04
116°
Apr 17, 09:59 30.70918° -81.29180° 8 min 0.02 0.01
90°
Apr 17, 09:51 30.70918° -81.29182° 2 min 0.02 0.04
180°
Apr 17, 09:49 30.70920° -81.29182° 8 min 0.02 0.02
128°
Apr 17, 09:41 30.70923° -81.29186° 2 min 0.02 0.00
Apr 17, 09:39 30.70923° -81.29186° 8 min 0.02 0.01
270°
Apr 17, 09:31 30.70923° -81.29184° 2 min 0.02 0.00
Apr 17, 09:29 30.70923° -81.29184° 8 min 0.02 0.02
149°
Apr 17, 09:21 30.70927° -81.29186° 2 min 0.02 0.00
Apr 17, 09:19 30.70927° -81.29186° 8 min 0.02 0.02
329°
Apr 17, 09:11 30.70923° -81.29184° 2 min 0.02 0.07
149°
Apr 17, 09:09 30.70927° -81.29186° 8 min 0.02 0.01
180°
Apr 17, 09:01 30.70928° -81.29186° 2 min 0.02 0.02
Apr 17, 08:59 30.70927° -81.29186° 8 min 0.02 0.01
120°
Apr 17, 08:51 30.70928° -81.29189° 2 min 0.02 0.04
90°
Apr 17, 08:49 30.70928° -81.29191° 8 min 0.02 0.01
148°
Apr 17, 08:41 30.70930° -81.29192° 2 min 0.02 0.00
Apr 17, 08:39 30.70930° -81.29192° 8 min 0.02 0.00
Apr 17, 08:31 30.70930° -81.29192° 2 min 0.02 0.00
Apr 17, 08:29 30.70930° -81.29192° 8 min 0.02 0.01
139°
Apr 17, 08:21 30.70932° -81.29195° 1 min 0.02 0.00
Apr 17, 08:19 30.70932° -81.29195° 8 min 0.02 0.01
270°
Apr 17, 08:11 30.70932° -81.29192° 2 min 0.02 0.04
90°
Apr 17, 08:09 30.70932° -81.29195° 8 min 0.02 0.00
Apr 17, 08:01 30.70932° -81.29195° 2 min 0.02 0.02
180°
Apr 17, 07:59 30.70933° -81.29195° 8 min 0.02 0.01
64°
Apr 17, 07:51 30.70932° -81.29197° 2 min 0.02 0.02
180°
Apr 17, 07:49 30.70933° -81.29197° 8 min 0.02 0.00
Apr 17, 07:41 30.70933° -81.29197° 2 min 0.02 0.04
90°
Apr 17, 07:39 30.70933° -81.29199° 8 min 0.02 0.01
90°
Apr 17, 07:31 30.70933° -81.29202° 2 min 0.02 0.00
Apr 17, 07:29 30.70933° -81.29202° 8 min 0.02 0.01
270°
Apr 17, 07:21 30.70933° -81.29199° 2 min 0.02 0.00
Apr 17, 07:19 30.70933° -81.29199° 8 min 0.02 0.01
180°
Apr 17, 07:11 30.70935° -81.29199° 2 min 0.02 0.05
317°
Apr 17, 07:09 30.70933° -81.29197° 8 min 0.02 0.01
180°
Apr 17, 07:01 30.70935° -81.29197° 2 min 0.02 0.00
Apr 17, 06:59 30.70935° -81.29197° 8 min 0.02 0.02
90°
Apr 17, 06:51 30.70935° -81.29202° 2 min 0.02 0.00
Apr 17, 06:49 30.70935° -81.29202° 8 min 0.02 0.00
Apr 17, 06:41 30.70935° -81.29202° 2 min 0.02 0.02
90°
Apr 17, 06:39 30.70935° -81.29203° 8 min 0.02 0.01
229°
Apr 17, 06:31 30.70936° -81.29202° 2 min 0.02 0.00
Apr 17, 06:29 30.70936° -81.29202° 8 min 0.02 0.00
Apr 17, 06:21 30.70936° -81.29202° 2 min 0.02 0.00
Apr 17, 06:19 30.70936° -81.29202° 8 min 0.02 0.00
Apr 17, 06:11 30.70936° -81.29202° 2 min 0.02 0.02
90°
Apr 17, 06:09 30.70936° -81.29203° 8 min 0.02 0.01
311°
Apr 17, 06:01 30.70935° -81.29202° 2 min 0.02 0.02
90°
Apr 17, 05:59 30.70935° -81.29203° 8 min 0.02 0.01
229°
Apr 17, 05:51 30.70936° -81.29202° 2 min 0.02 0.03
49°
Apr 17, 05:49 30.70935° -81.29203° 8 min 0.02 0.01
229°
Apr 17, 05:41 30.70936° -81.29202° 2 min 0.02 0.02
Apr 17, 05:39 30.70935° -81.29202° 8 min 0.02 0.01
90°
Apr 17, 05:31 30.70935° -81.29203° 2 min 0.02 0.00
Apr 17, 05:29 30.70935° -81.29203° 8 min 0.02 0.00
Apr 17, 05:21 30.70935° -81.29203° 2 min 0.02 0.04
90°
Apr 17, 05:19 30.70935° -81.29205° 8 min 0.02 0.00
Apr 17, 05:11 30.70935° -81.29205° 2 min 0.02 0.00
Apr 17, 05:09 30.70935° -81.29205° 8 min 0.02 0.00
Apr 17, 05:01 30.70935° -81.29205° 2 min 0.02 0.00
Apr 17, 04:59 30.70935° -81.29205° 8 min 0.02 0.01
90°
Apr 17, 04:51 30.70935° -81.29208° 2 min 0.02 0.00
Apr 17, 04:49 30.70935° -81.29208° 8 min 0.02 0.01
Apr 17, 04:41 30.70933° -81.29208° 2 min 0.02 0.00
Apr 17, 04:39 30.70933° -81.29208° 8 min 0.02 0.01
180°
Apr 17, 04:31 30.70935° -81.29208° 2 min 0.02 0.00
Apr 17, 04:29 30.70935° -81.29208° 8 min 0.02 0.01
270°
Apr 17, 04:21 30.70935° -81.29205° 2 min 0.02 0.05
43°
Apr 17, 04:19 30.70933° -81.29208° 8 min 0.02 0.00
Apr 17, 04:11 30.70933° -81.29208° 2 min 0.02 0.00
Apr 17, 04:09 30.70933° -81.29208° 8 min 0.02 0.01
223°
Apr 17, 04:01 30.70935° -81.29205° 2 min 0.02 0.05
317°
Apr 17, 03:59 30.70933° -81.29203° 8 min 0.02 0.01
180°
Apr 17, 03:51 30.70935° -81.29203° 2 min 0.02 0.02
270°
Apr 17, 03:49 30.70935° -81.29202° 8 min 0.02 0.00
Apr 17, 03:41 30.70935° -81.29202° 2 min 0.02 0.04
270°
Apr 17, 03:39 30.70935° -81.29199° 8 min 0.02 0.01
317°
Apr 17, 03:31 30.70933° -81.29197° 2 min 0.02 0.04
90°
Apr 17, 03:29 30.70933° -81.29199° 8 min 0.02 0.00
Apr 17, 03:21 30.70933° -81.29199° 2 min 0.02 0.00
Apr 17, 03:19 30.70933° -81.29199° 8 min 0.02 0.01
270°
Apr 17, 03:11 30.70933° -81.29197° 2 min 0.02 0.00
Apr 17, 03:09 30.70933° -81.29197° 8 min 0.02 0.00
Apr 17, 03:01 30.70933° -81.29197° 2 min 0.02 0.04
270°
Apr 17, 02:59 30.70933° -81.29195° 8 min 0.02 0.01
64°
Apr 17, 02:51 30.70932° -81.29197° 2 min 0.02 0.00
Apr 17, 02:49 30.70932° -81.29197° 8 min 0.02 0.01
Apr 17, 02:41 30.70930° -81.29197° 2 min 0.02 0.00
Apr 17, 02:39 30.70930° -81.29197° 8 min 0.02 0.01
270°
Apr 17, 02:31 30.70930° -81.29195° 2 min 0.02 0.00
Apr 17, 02:29 30.70930° -81.29195° 8 min 0.02 0.01
317°
Apr 17, 02:21 30.70928° -81.29192° 2 min 0.02 0.04
180°
Apr 17, 02:19 30.70930° -81.29192° 8 min 0.02 0.03
316°
Apr 17, 02:11 30.70925° -81.29186° 2 min 0.02 0.00
Apr 17, 02:09 30.70925° -81.29186° 8 min 0.02 0.01
Apr 17, 02:01 30.70923° -81.29186° 2 min 0.02 0.00
Apr 17, 01:59 30.70923° -81.29186° 8 min 0.02 0.00
Apr 17, 01:51 30.70923° -81.29186° 2 min 0.02 0.04
270°
Apr 17, 01:49 30.70923° -81.29184° 8 min 0.02 0.00
Apr 17, 01:41 30.70923° -81.29184° 2 min 0.02 0.05
317°
Apr 17, 01:39 30.70921° -81.29182° 8 min 0.02 0.00
Apr 17, 01:31 30.70921° -81.29182° 2 min 0.02 0.00
Apr 17, 01:29 30.70921° -81.29182° 8 min 0.02 0.00
Apr 17, 01:21 30.70921° -81.29182° 2 min 0.02 0.00
Apr 17, 01:19 30.70921° -81.29182° 8 min 0.02 0.01
270°
Apr 17, 01:11 30.70921° -81.29180° 2 min 0.02 0.02
Apr 17, 01:09 30.70920° -81.29180° 8 min 0.02 0.00
Apr 17, 01:01 30.70920° -81.29180° 1 min 0.02 0.04
270°
Apr 17, 00:59 30.70920° -81.29178° 8 min 0.02 0.01
90°
Apr 17, 00:51 30.70920° -81.29180° 2 min 0.02 0.00
Apr 17, 00:49 30.70920° -81.29180° 8 min 0.02 0.01
319°
Apr 17, 00:41 30.70918° -81.29178° 2 min 0.02 0.00
Apr 17, 00:39 30.70918° -81.29178° 8 min 0.02 0.01
180°
Apr 17, 00:31 30.70920° -81.29178° 2 min 0.02 0.04
90°
Apr 17, 00:29 30.70920° -81.29180° 8 min 0.02 0.00
Apr 17, 00:21 30.70920° -81.29180° 2 min 0.02 0.00
Apr 17, 00:19 30.70920° -81.29180° 8 min 0.02 0.01
270°
Apr 17, 00:11 30.70920° -81.29178° 2 min 0.02 0.00
Apr 17, 00:09 30.70920° -81.29178° 8 min 0.02 0.01
90°
Apr 17, 00:01 30.70920° -81.29180° 2 min 0.02 0.00
Apr 16, 23:59 30.70920° -81.29180° 8 min 0.02 0.00
180°
Apr 16, 23:51 30.70921° -81.29180° 2 min 0.02 0.02
Apr 16, 23:49 30.70920° -81.29180° 8 min 0.02 0.00
Apr 16, 23:41 30.70920° -81.29180° 2 min 0.02 0.00
Apr 16, 23:39 30.70920° -81.29180° 8 min 0.02 0.01
270°
Apr 16, 23:31 30.70920° -81.29178° 2 min 0.02 0.04
90°
Apr 16, 23:29 30.70920° -81.29180° 8 min 0.02 0.00
Apr 16, 23:21 30.70920° -81.29180° 2 min 0.02 0.00
Apr 16, 23:19 30.70920° -81.29180° 8 min 0.02 0.01
270°
Apr 16, 23:11 30.70920° -81.29178° 2 min 0.02 0.00
Apr 16, 23:09 30.70920° -81.29178° 8 min 0.02 0.01
90°
Apr 16, 23:01 30.70920° -81.29180° 2 min 0.02 0.00
Apr 16, 22:59 30.70920° -81.29180° 8 min 0.02 0.01
270°
Apr 16, 22:51 30.70920° -81.29178° 2 min 0.02 0.05
41°
Apr 16, 22:49 30.70918° -81.29180° 8 min 0.02 0.01
180°
Apr 16, 22:41 30.70920° -81.29180° 2 min 0.02 0.00
Apr 16, 22:39 30.70920° -81.29180° 8 min 0.02 0.01
270°
Apr 16, 22:31 30.70920° -81.29178° 2 min 0.02 0.04
116°
Apr 16, 22:29 30.70921° -81.29180° 8 min 0.02 0.00
Apr 16, 22:21 30.70921° -81.29180° 2 min 0.02 0.00
Apr 16, 22:19 30.70921° -81.29180° 8 min 0.02 0.00
Apr 16, 22:11 30.70921° -81.29180° 2 min 0.02 0.04
180°
Apr 16, 22:09 30.70923° -81.29180° 8 min 0.02 0.01
Apr 16, 22:01 30.70921° -81.29180° 2 min 0.02 0.04
148°
Apr 16, 21:59 30.70923° -81.29182° 8 min 0.02 0.00
Apr 16, 21:51 30.70923° -81.29182° 2 min 0.02 0.00
Apr 16, 21:49 30.70923° -81.29182° 8 min 0.02 0.00
Apr 16, 21:41 30.70923° -81.29182° 1 min 0.02 0.00
Apr 16, 21:39 30.70923° -81.29182° 8 min 0.02 0.01
180°
Apr 16, 21:31 30.70925° -81.29182° 2 min 0.02 0.00
Apr 16, 21:29 30.70925° -81.29182° 8 min 0.02 0.01
137°
Apr 16, 21:21 30.70927° -81.29184° 2 min 0.02 0.00
Apr 16, 21:19 30.70927° -81.29184° 8 min 0.02 0.00
Apr 16, 21:11 30.70927° -81.29184° 2 min 0.02 0.02
180°
Apr 16, 21:09 30.70928° -81.29184° 8 min 0.02 0.01
Apr 16, 21:01 30.70927° -81.29184° 2 min 0.02 0.05
317°
Apr 16, 20:59 30.70925° -81.29182° 8 min 0.02 0.02
129°
Apr 16, 20:51 30.70928° -81.29186° 2 min 0.02 0.04
180°
Apr 16, 20:49 30.70930° -81.29186° 8 min 0.02 0.00
Apr 16, 20:41 30.70930° -81.29186° 2 min 0.02 0.00
Apr 16, 20:39 30.70930° -81.29186° 8 min 0.02 0.00
Apr 16, 20:31 30.70930° -81.29186° 2 min 0.02 0.04
Apr 16, 20:29 30.70928° -81.29186° 8 min 0.02 0.01
137°
Apr 16, 20:21 30.70930° -81.29189° 2 min 0.02 0.00
Apr 16, 20:19 30.70930° -81.29189° 8 min 0.02 0.01
139°
Apr 16, 20:11 30.70932° -81.29191° 2 min 0.02 0.00
Apr 16, 20:09 30.70932° -81.29191° 8 min 0.02 0.00
Apr 16, 20:01 30.70932° -81.29191° 2 min 0.02 0.02
180°
Apr 16, 19:59 30.70933° -81.29191° 8 min 0.02 0.01
90°
Apr 16, 19:51 30.70933° -81.29192° 2 min 0.02 0.04
180°
Apr 16, 19:49 30.70935° -81.29192° 8 min 0.02 0.01
Apr 16, 19:41 30.70933° -81.29192° 2 min 0.02 0.00
Apr 16, 19:39 30.70933° -81.29192° 8 min 0.02 0.01
180°
Apr 16, 19:31 30.70935° -81.29192° 2 min 0.02 0.04
90°
Apr 16, 19:29 30.70935° -81.29195° 8 min 0.02 0.01
Apr 16, 19:21 30.70933° -81.29195° 2 min 0.02 0.00
Apr 16, 19:19 30.70933° -81.29195° 8 min 0.02 0.01
137°
Apr 16, 19:11 30.70935° -81.29197° 2 min 0.02 0.02
180°
Apr 16, 19:09 30.70936° -81.29197° 8 min 0.02 0.01
Apr 16, 19:01 30.70935° -81.29197° 2 min 0.02 0.00
Apr 16, 18:59 30.70935° -81.29197° 8 min 0.02 0.01
120°
Apr 16, 18:51 30.70936° -81.29199° 2 min 0.02 0.00
Apr 16, 18:49 30.70936° -81.29199° 8 min 0.02 0.01
60°
Apr 16, 18:41 30.70935° -81.29202° 2 min 0.02 0.00
Apr 16, 18:39 30.70935° -81.29202° 8 min 0.02 0.00
Apr 16, 18:31 30.70935° -81.29202° 2 min 0.02 0.00
Apr 16, 18:29 30.70935° -81.29202° 8 min 0.02 0.01
90°
Apr 16, 18:21 30.70935° -81.29203° 2 min 0.02 0.00
Apr 16, 18:19 30.70935° -81.29203° 8 min 0.02 0.00
Apr 16, 18:11 30.70935° -81.29203° 1 min 0.02 0.02
270°
Apr 16, 18:09 30.70935° -81.29202° 8 min 0.02 0.01
90°
Apr 16, 18:01 30.70935° -81.29203° 2 min 0.02 0.00
Apr 16, 17:59 30.70935° -81.29203° 8 min 0.02 0.00
Apr 16, 17:51 30.70935° -81.29203° 2 min 0.02 0.00
Apr 16, 17:49 30.70935° -81.29203° 8 min 0.02 0.00
Apr 16, 17:41 30.70935° -81.29203° 2 min 0.02 0.02
270°
Apr 16, 17:39 30.70935° -81.29202° 8 min 0.02 0.01
90°
Apr 16, 17:31 30.70935° -81.29203° 2 min 0.02 0.04
328°
Apr 16, 17:29 30.70933° -81.29202° 8 min 0.02 0.01
148°
Apr 16, 17:21 30.70935° -81.29203° 2 min 0.02 0.02
270°
Apr 16, 17:19 30.70935° -81.29202° 8 min 0.02 0.00
Apr 16, 17:11 30.70935° -81.29202° 2 min 0.02 0.02
90°
Apr 16, 17:09 30.70935° -81.29203° 8 min 0.02 0.01
270°
Apr 16, 17:01 30.70935° -81.29202° 2 min 0.02 0.00
Apr 16, 16:59 30.70935° -81.29202° 8 min 0.02 0.01
90°
Apr 16, 16:51 30.70935° -81.29203° 2 min 0.02 0.04
328°
Apr 16, 16:49 30.70933° -81.29202° 8 min 0.02 0.01
180°
Apr 16, 16:41 30.70935° -81.29202° 2 min 0.02 0.00
Apr 16, 16:39 30.70935° -81.29202° 8 min 0.02 0.01
90°
Apr 16, 16:31 30.70935° -81.29203° 2 min 0.02 0.00
Apr 16, 16:29 30.70935° -81.29203° 8 min 0.02 0.00
Apr 16, 16:21 30.70935° -81.29203° 2 min 0.02 0.02
270°
Apr 16, 16:19 30.70935° -81.29202° 8 min 0.02 0.00
Apr 16, 16:11 30.70935° -81.29202° 2 min 0.02 0.00
Apr 16, 16:09 30.70935° -81.29202° 8 min 0.02 0.00
Apr 16, 16:01 30.70935° -81.29202° 2 min 0.02 0.00
Apr 16, 15:59 30.70935° -81.29202° 8 min 0.02 0.00
Apr 16, 15:51 30.70935° -81.29202° 2 min 0.02 0.00
Apr 16, 15:49 30.70935° -81.29202° 8 min 0.02 0.00
Apr 16, 15:41 30.70935° -81.29202° 2 min 0.02 0.00
Apr 16, 15:39 30.70935° -81.29202° 8 min 0.02 0.01
90°
Apr 16, 15:31 30.70935° -81.29203° 2 min 0.02 0.03
229°
Apr 16, 15:29 30.70936° -81.29202° 8 min 0.02 0.01
Apr 16, 15:21 30.70935° -81.29202° 2 min 0.02 0.00
Apr 16, 15:19 30.70935° -81.29202° 8 min 0.02 0.01
317°
Apr 16, 15:11 30.70933° -81.29199° 2 min 0.02 0.04
270°
Apr 16, 15:09 30.70933° -81.29197° 8 min 0.02 0.00
Apr 16, 15:01 30.70933° -81.29197° 2 min 0.02 0.00
Apr 16, 14:59 30.70933° -81.29197° 8 min 0.02 0.01
223°
Apr 16, 14:51 30.70935° -81.29195° 2 min 0.02 0.00
Apr 16, 14:49 30.70935° -81.29195° 8 min 0.02 0.01
43°
Apr 16, 14:41 30.70933° -81.29197° 1 min 0.02 0.04
270°
Apr 16, 14:39 30.70933° -81.29195° 8 min 0.02 0.00
Apr 16, 14:31 30.70933° -81.29195° 2 min 0.02 0.02
Apr 16, 14:29 30.70932° -81.29195° 8 min 0.02 0.01
90°
Apr 16, 14:21 30.70932° -81.29197° 2 min 0.02 0.02
180°
Apr 16, 14:19 30.70933° -81.29197° 8 min 0.02 0.00
Apr 16, 14:11 30.70933° -81.29197° 2 min 0.02 0.00
Apr 16, 14:09 30.70933° -81.29197° 8 min 0.02 0.02
284°
Apr 16, 14:01 30.70932° -81.29192° 2 min 0.02 0.00
Apr 16, 13:59 30.70932° -81.29192° 8 min 0.02 0.01
270°
Apr 16, 13:51 30.70932° -81.29191° 2 min 0.02 0.00
Apr 16, 13:49 30.70932° -81.29191° 8 min 0.02 0.01
319°
Apr 16, 13:41 30.70930° -81.29189° 2 min 0.02 0.00
Apr 16, 13:39 30.70930° -81.29189° 8 min 0.02 0.01
317°
Apr 16, 13:31 30.70928° -81.29186° 2 min 0.02 0.00
Apr 16, 13:29 30.70928° -81.29186° 8 min 0.02 0.01
270°
Apr 16, 13:21 30.70928° -81.29184° 2 min 0.02 0.04
90°
Apr 16, 13:19 30.70928° -81.29186° 8 min 0.02 0.01
300°
Apr 16, 13:11 30.70927° -81.29184° 2 min 0.02 0.04
270°
Apr 16, 13:09 30.70927° -81.29182° 8 min 0.02 0.01
Apr 16, 13:01 30.70925° -81.29182° 2 min 0.02 0.04
180°
Apr 16, 12:59 30.70927° -81.29182° 8 min 0.02 0.01
Apr 16, 12:51 30.70925° -81.29182° 2 min 0.02 0.04
180°
Apr 16, 12:49 30.70927° -81.29182° 8 min 0.02 0.02
338°
Apr 16, 12:41 30.70923° -81.29180° 2 min 0.02 0.00
Apr 16, 12:39 30.70923° -81.29180° 8 min 0.02 0.01
240°
Apr 16, 12:31 30.70925° -81.29178° 2 min 0.02 0.02
Apr 16, 12:29 30.70923° -81.29178° 8 min 0.02 0.00
Apr 16, 12:21 30.70923° -81.29178° 2 min 0.02 0.04
90°
Apr 16, 12:19 30.70923° -81.29180° 8 min 0.02 0.01
317°
Apr 16, 12:11 30.70921° -81.29178° 2 min 0.02 0.04
270°
Apr 16, 12:09 30.70921° -81.29176° 8 min 0.02 0.01
64°
Apr 16, 12:01 30.70920° -81.29178° 2 min 0.02 0.04
244°
Apr 16, 11:59 30.70921° -81.29176° 8 min 0.02 0.02
31°
Apr 16, 11:51 30.70918° -81.29178° 2 min 0.02 0.04
270°
Apr 16, 11:49 30.70918° -81.29176° 8 min 0.02 0.01
180°
Apr 16, 11:41 30.70920° -81.29176° 2 min 0.02 0.00
Apr 16, 11:39 30.70920° -81.29176° 8 min 0.02 0.01
Apr 16, 11:31 30.70918° -81.29176° 2 min 0.02 0.00
Apr 16, 11:29 30.70918° -81.29176° 8 min 0.02 0.00
Apr 16, 11:21 30.70918° -81.29176° 2 min 0.02 0.00
Apr 16, 11:19 30.70918° -81.29176° 7 min 0.02 0.00
Apr 16, 11:11 30.70918° -81.29176° 2 min 0.02 0.00
Apr 16, 11:09 30.70918° -81.29176° 8 min 0.02 0.00
Apr 16, 11:01 30.70918° -81.29176° 2 min 0.02 0.00
Apr 16, 10:59 30.70918° -81.29176° 8 min 0.02 0.00
Apr 16, 10:51 30.70918° -81.29176° 2 min 0.02 0.00
Apr 16, 10:49 30.70918° -81.29176° 8 min 0.02 0.01
180°
Apr 16, 10:41 30.70920° -81.29176° 2 min 0.02 0.00
Apr 16, 10:39 30.70920° -81.29176° 8 min 0.02 0.01
90°
Apr 16, 10:31 30.70920° -81.29178° 2 min 0.02 0.00
Apr 16, 10:29 30.70920° -81.29178° 8 min 0.02 0.00
Apr 16, 10:21 30.70920° -81.29178° 2 min 0.02 0.00
Apr 16, 10:19 30.70920° -81.29178° 8 min 0.02 0.01
319°
Apr 16, 10:11 30.70918° -81.29176° 2 min 0.02 0.04
180°
Apr 16, 10:09 30.70920° -81.29176° 8 min 0.02 0.01
90°
Apr 16, 10:01 30.70920° -81.29178° 2 min 0.02 0.00
Apr 16, 09:59 30.70920° -81.29178° 8 min 0.02 0.00
Apr 16, 09:51 30.70920° -81.29178° 2 min 0.02 0.00
Apr 16, 09:49 30.70920° -81.29178° 8 min 0.02 0.00
180°
Apr 16, 09:41 30.70921° -81.29178° 2 min 0.02 0.02
Apr 16, 09:39 30.70920° -81.29178° 8 min 0.02 0.00
180°
Apr 16, 09:31 30.70921° -81.29178° 2 min 0.02 0.00
Apr 16, 09:29 30.70921° -81.29178° 8 min 0.02 0.00
Apr 16, 09:21 30.70921° -81.29178° 2 min 0.02 0.04
180°
Apr 16, 09:19 30.70923° -81.29178° 3 h, 8 min 0.02 0.00
126°
Apr 16, 06:11 30.70935° -81.29197° 2 min 0.02 0.02
180°
Apr 16, 06:09 30.70936° -81.29197° 8 min 0.02 0.01
60°
Apr 16, 06:01 30.70935° -81.29199° 2 min 0.02 0.00
Apr 16, 05:59 30.70935° -81.29199° 8 min 0.02 0.00
Apr 16, 05:51 30.70935° -81.29199° 2 min 0.02 0.04
90°
Apr 16, 05:49 30.70935° -81.29202° 8 min 0.02 0.01
270°
Apr 16, 05:41 30.70935° -81.29199° 2 min 0.02 0.04
90°
Apr 16, 05:39 30.70935° -81.29202° 8 min 0.02 0.00
Apr 16, 05:31 30.70935° -81.29202° 2 min 0.02 0.00
Apr 16, 05:29 30.70935° -81.29202° 8 min 0.02 0.01
180°
Apr 16, 05:21 30.70936° -81.29202° 2 min 0.02 0.00
Apr 16, 05:19 30.70936° -81.29202° 8 min 0.02 0.00
Apr 16, 05:11 30.70936° -81.29202° 2 min 0.02 0.00
Apr 16, 05:09 30.70936° -81.29202° 8 min 0.02 0.00
Apr 16, 05:01 30.70936° -81.29202° 2 min 0.02 0.04
180°
Apr 16, 04:59 30.70938° -81.29202° 8 min 0.02 0.01
Apr 16, 04:51 30.70936° -81.29202° 2 min 0.02 0.00
Apr 16, 04:49 30.70936° -81.29202° 8 min 0.02 0.01
90°
Apr 16, 04:41 30.70936° -81.29203° 2 min 0.02 0.00
Apr 16, 04:39 30.70936° -81.29203° 8 min 0.02 0.02
118°
Apr 16, 04:31 30.70938° -81.29208° 2 min 0.02 0.04
Apr 16, 04:29 30.70936° -81.29208° 8 min 0.02 0.00
Apr 16, 04:21 30.70936° -81.29208° 2 min 0.02 0.04
180°
Apr 16, 04:19 30.70938° -81.29208° 8 min 0.02 0.01
180°
Apr 16, 04:11 30.70940° -81.29208° 2 min 0.02 0.02
Apr 16, 04:09 30.70938° -81.29208° 8 min 0.02 0.01
180°
Apr 16, 04:01 30.70940° -81.29208° 1 min 0.02 0.00
Apr 16, 03:59 30.70940° -81.29208° 8 min 0.02 0.01
270°
Apr 16, 03:51 30.70940° -81.29205° 2 min 0.02 0.00
Apr 16, 03:49 30.70940° -81.29205° 8 min 0.02 0.01
90°
Apr 16, 03:41 30.70940° -81.29208° 2 min 0.02 0.00
Apr 16, 03:39 30.70940° -81.29208° 8 min 0.02 0.02
329°
Apr 16, 03:31 30.70936° -81.29205° 2 min 0.02 0.02
Apr 16, 03:29 30.70935° -81.29205° 8 min 0.02 0.00
Apr 16, 03:21 30.70935° -81.29205° 2 min 0.02 0.04
270°
Apr 16, 03:19 30.70935° -81.29203° 8 min 0.02 0.00
Apr 16, 03:11 30.70935° -81.29203° 2 min 0.02 0.00
Apr 16, 03:09 30.70935° -81.29203° 8 min 0.02 0.01
270°
Apr 16, 03:01 30.70935° -81.29202° 2 min 0.02 0.00
Apr 16, 02:59 30.70935° -81.29202° 8 min 0.02 0.00
Apr 16, 02:51 30.70935° -81.29202° 2 min 0.02 0.00
Apr 16, 02:49 30.70935° -81.29202° 8 min 0.02 0.00
Apr 16, 02:41 30.70935° -81.29202° 2 min 0.02 0.04
32°
Apr 16, 02:39 30.70933° -81.29203° 8 min 0.02 0.01
270°
Apr 16, 02:31 30.70933° -81.29202° 2 min 0.02 0.04
180°
Apr 16, 02:29 30.70935° -81.29202° 8 min 0.02 0.00
Apr 16, 02:21 30.70935° -81.29202° 2 min 0.02 0.00
Apr 16, 02:19 30.70935° -81.29202° 8 min 0.02 0.01
Apr 16, 02:11 30.70933° -81.29202° 2 min 0.02 0.00
Apr 16, 02:09 30.70933° -81.29202° 8 min 0.02 0.00
Apr 16, 02:01 30.70933° -81.29202° 2 min 0.02 0.00
Apr 16, 01:59 30.70933° -81.29202° 8 min 0.02 0.02
270°
Apr 16, 01:51 30.70933° -81.29197° 2 min 0.02 0.04
90°
Apr 16, 01:49 30.70933° -81.29199° 8 min 0.02 0.00
Apr 16, 01:41 30.70933° -81.29199° 2 min 0.02 0.04
270°
Apr 16, 01:39 30.70933° -81.29197° 8 min 0.02 0.01
270°
Apr 16, 01:31 30.70933° -81.29195° 2 min 0.02 0.00
Apr 16, 01:29 30.70933° -81.29195° 8 min 0.02 0.01
296°
Apr 16, 01:21 30.70932° -81.29192° 2 min 0.02 0.00
Apr 16, 01:19 30.70932° -81.29192° 8 min 0.02 0.00
Apr 16, 01:11 30.70932° -81.29192° 2 min 0.02 0.00
Apr 16, 01:09 30.70932° -81.29192° 8 min 0.02 0.01
270°
Apr 16, 01:01 30.70932° -81.29191° 2 min 0.02 0.02
90°
Apr 16, 00:59 30.70932° -81.29192° 8 min 0.02 0.01
270°
Apr 16, 00:51 30.70932° -81.29189° 2 min 0.02 0.00
Apr 16, 00:49 30.70932° -81.29189° 8 min 0.02 0.00
Apr 16, 00:41 30.70932° -81.29189° 2 min 0.02 0.04
Apr 16, 00:39 30.70930° -81.29189° 8 min 0.02 0.01
270°
Apr 16, 00:31 30.70930° -81.29186° 2 min 0.02 0.04
Apr 16, 00:29 30.70928° -81.29186° 7 min 0.02 0.00
Apr 16, 00:21 30.70928° -81.29186° 2 min 0.02 0.00
Apr 16, 00:19 30.70928° -81.29186° 8 min 0.02 0.01
Apr 16, 00:11 30.70927° -81.29186° 2 min 0.02 0.05
317°
Apr 16, 00:09 30.70925° -81.29184° 8 min 0.02 0.00
Apr 16, 00:01 30.70925° -81.29184° 2 min 0.02 0.04
300°
Apr 15, 23:59 30.70923° -81.29182° 8 min 0.02 0.00
Apr 15, 23:51 30.70923° -81.29182° 2 min 0.02 0.00
Apr 15, 23:49 30.70923° -81.29182° 8 min 0.02 0.01
328°
Apr 15, 23:41 30.70921° -81.29180° 2 min 0.02 0.02
Apr 15, 23:39 30.70920° -81.29180° 8 min 0.02 0.01
244°
Apr 15, 23:31 30.70921° -81.29178° 2 min 0.02 0.04
90°
Apr 15, 23:29 30.70921° -81.29180° 8 min 0.02 0.02
329°
Apr 15, 23:21 30.70918° -81.29178° 2 min 0.02 0.04
180°
Apr 15, 23:19 30.70920° -81.29178° 8 min 0.02 0.01
90°
Apr 15, 23:11 30.70920° -81.29180° 2 min 0.02 0.02
180°
Apr 15, 23:09 30.70921° -81.29180° 8 min 0.02 0.02
335°
Apr 15, 23:01 30.70917° -81.29178° 2 min 0.02 0.02
180°
Apr 15, 22:59 30.70918° -81.29178° 8 min 0.02 0.00
Apr 15, 22:51 30.70918° -81.29178° 2 min 0.02 0.00
Apr 15, 22:49 30.70918° -81.29178° 8 min 0.02 0.01
139°
Apr 15, 22:41 30.70920° -81.29180° 2 min 0.02 0.02
180°
Apr 15, 22:39 30.70921° -81.29180° 8 min 0.02 0.01
296°
Apr 15, 22:31 30.70920° -81.29178° 2 min 0.02 0.00
Apr 15, 22:29 30.70920° -81.29178° 8 min 0.02 0.00
Apr 15, 22:21 30.70920° -81.29178° 2 min 0.02 0.00
Apr 15, 22:19 30.70920° -81.29178° 8 min 0.02 0.01
Apr 15, 22:11 30.70918° -81.29178° 2 min 0.02 0.00
Apr 15, 22:09 30.70918° -81.29178° 8 min 0.02 0.00
Apr 15, 22:01 30.70917° -81.29178° 2 min 0.02 0.02
180°
Apr 15, 21:59 30.70918° -81.29178° 8 min 0.02 0.00
Apr 15, 21:51 30.70918° -81.29178° 2 min 0.02 0.02
Apr 15, 21:49 30.70917° -81.29178° 8 min 0.02 0.01
180°
Apr 15, 21:41 30.70920° -81.29178° 2 min 0.02 0.04
Apr 15, 21:39 30.70918° -81.29178° 8 min 0.02 0.00
Apr 15, 21:31 30.70918° -81.29178° 2 min 0.02 0.00
Apr 15, 21:29 30.70918° -81.29178° 8 min 0.02 0.01
139°
Apr 15, 21:21 30.70920° -81.29180° 2 min 0.02 0.04
270°
Apr 15, 21:19 30.70920° -81.29178° 8 min 0.02 0.00
180°
Apr 15, 21:11 30.70921° -81.29178° 2 min 0.02 0.02
Apr 15, 21:09 30.70920° -81.29178° 8 min 0.02 0.01
90°
Apr 15, 21:01 30.70920° -81.29180° 1 min 0.02 0.00
Apr 15, 20:59 30.70920° -81.29180° 8 min 0.02 0.01
157°
Apr 15, 20:51 30.70923° -81.29182° 2 min 0.02 0.02
180°
Apr 15, 20:49 30.70925° -81.29182° 8 min 0.02 0.01
Apr 15, 20:41 30.70923° -81.29182° 2 min 0.02 0.00
Apr 15, 20:39 30.70923° -81.29182° 8 min 0.02 0.01
90°
Apr 15, 20:31 30.70923° -81.29184° 2 min 0.02 0.04
270°
Apr 15, 20:29 30.70923° -81.29182° 8 min 0.02 0.01
90°
Apr 15, 20:21 30.70923° -81.29184° 2 min 0.02 0.02
180°
Apr 15, 20:19 30.70925° -81.29184° 8 min 0.02 0.01
90°
Apr 15, 20:11 30.70925° -81.29186° 2 min 0.02 0.04
180°
Apr 15, 20:09 30.70927° -81.29186° 8 min 0.02 0.00
Apr 15, 20:01 30.70927° -81.29186° 2 min 0.02 0.00
Apr 15, 19:59 30.70927° -81.29186° 8 min 0.02 0.01
90°
Apr 15, 19:51 30.70927° -81.29189° 2 min 0.02 0.04
120°
Apr 15, 19:49 30.70928° -81.29191° 8 min 0.02 0.00
Apr 15, 19:41 30.70928° -81.29191° 2 min 0.02 0.02
90°
Apr 15, 19:39 30.70928° -81.29192° 8 min 0.02 0.01
180°
Apr 15, 19:31 30.70930° -81.29192° 2 min 0.02 0.00
Apr 15, 19:29 30.70930° -81.29192° 8 min 0.02 0.01
90°
Apr 15, 19:21 30.70930° -81.29195° 2 min 0.02 0.00
Apr 15, 19:19 30.70930° -81.29195° 8 min 0.02 0.00
Apr 15, 19:11 30.70930° -81.29195° 2 min 0.02 0.05
139°
Apr 15, 19:09 30.70932° -81.29197° 8 min 0.02 0.00
Apr 15, 19:01 30.70932° -81.29197° 2 min 0.02 0.04
90°
Apr 15, 18:59 30.70932° -81.29199° 8 min 0.02 0.00
Apr 15, 18:51 30.70932° -81.29199° 2 min 0.02 0.00
Apr 15, 18:49 30.70932° -81.29199° 8 min 0.02 0.01
90°
Apr 15, 18:41 30.70932° -81.29202° 2 min 0.02 0.00
Apr 15, 18:39 30.70932° -81.29202° 8 min 0.02 0.00
Apr 15, 18:31 30.70932° -81.29202° 2 min 0.02 0.03
126°
Apr 15, 18:29 30.70933° -81.29203° 8 min 0.02 0.00
Apr 15, 18:21 30.70932° -81.29203° 2 min 0.02 0.00
Apr 15, 18:19 30.70932° -81.29203° 8 min 0.02 0.00
Apr 15, 18:11 30.70932° -81.29203° 2 min 0.02 0.00
Apr 15, 18:09 30.70932° -81.29203° 8 min 0.02 0.01
116°
Apr 15, 18:01 30.70933° -81.29205° 2 min 0.02 0.00
Apr 15, 17:59 30.70933° -81.29205° 8 min 0.02 0.01
64°
Apr 15, 17:51 30.70932° -81.29208° 2 min 0.02 0.04
244°
Apr 15, 17:49 30.70933° -81.29205° 8 min 0.02 0.01
64°
Apr 15, 17:41 30.70932° -81.29208° 2 min 0.02 0.00
Apr 15, 17:39 30.70932° -81.29208° 8 min 0.02 0.00
Apr 15, 17:31 30.70932° -81.29208° 1 min 0.02 0.00
Apr 15, 17:29 30.70932° -81.29208° 8 min 0.02 0.01
90°
Apr 15, 17:21 30.70932° -81.29210° 2 min 0.02 0.04
270°
Apr 15, 17:19 30.70932° -81.29208° 8 min 0.02 0.01
90°
Apr 15, 17:11 30.70932° -81.29210° 2 min 0.02 0.04
90°
Apr 15, 17:09 30.70932° -81.29212° 8 min 0.02 0.01
270°
Apr 15, 17:01 30.70932° -81.29210° 2 min 0.02 0.04
Apr 15, 16:59 30.70930° -81.29210° 8 min 0.02 0.01
139°
Apr 15, 16:51 30.70932° -81.29212° 2 min 0.02 0.04
270°
Apr 15, 16:49 30.70932° -81.29210° 8 min 0.02 0.01
90°
Apr 15, 16:41 30.70932° -81.29212° 2 min 0.02 0.00
Apr 15, 16:39 30.70932° -81.29212° 8 min 0.02 0.00
Apr 15, 16:31 30.70932° -81.29212° 2 min 0.02 0.00
Apr 15, 16:29 30.70932° -81.29212° 8 min 0.02 0.00
Apr 15, 16:21 30.70932° -81.29212° 2 min 0.02 0.00
Apr 15, 16:19 30.70932° -81.29212° 8 min 0.02 0.00
180°
Apr 15, 16:11 30.70933° -81.29212° 2 min 0.02 0.02
90°
Apr 15, 16:09 30.70933° -81.29214° 8 min 0.02 0.01
306°
Apr 15, 16:01 30.70932° -81.29212° 2 min 0.02 0.00
Apr 15, 15:59 30.70932° -81.29212° 8 min 0.02 0.00
Apr 15, 15:51 30.70932° -81.29212° 2 min 0.02 0.02
90°
Apr 15, 15:49 30.70932° -81.29214° 8 min 0.02 0.00
Apr 15, 15:41 30.70932° -81.29214° 2 min 0.02 0.00
Apr 15, 15:39 30.70932° -81.29214° 8 min 0.02 0.01
90°
Apr 15, 15:31 30.70932° -81.29216° 2 min 0.02 0.04
270°
Apr 15, 15:29 30.70932° -81.29214° 8 min 0.02 0.01
270°
Apr 15, 15:21 30.70932° -81.29212° 2 min 0.02 0.00
Apr 15, 15:19 30.70932° -81.29212° 8 min 0.02 0.00
Apr 15, 15:11 30.70932° -81.29212° 2 min 0.02 0.00
Apr 15, 15:09 30.70932° -81.29212° 8 min 0.02 0.01
270°
Apr 15, 15:01 30.70932° -81.29210° 2 min 0.02 0.04
90°
Apr 15, 14:59 30.70932° -81.29212° 8 min 0.02 0.00
Apr 15, 14:51 30.70932° -81.29212° 2 min 0.02 0.00
Apr 15, 14:49 30.70932° -81.29212° 8 min 0.02 0.01
30°
Apr 15, 14:41 30.70930° -81.29214° 2 min 0.02 0.00
Apr 15, 14:39 30.70930° -81.29214° 8 min 0.02 0.01
270°
Apr 15, 14:31 30.70930° -81.29212° 2 min 0.02 0.04
270°
Apr 15, 14:29 30.70930° -81.29210° 8 min 0.02 0.00
Apr 15, 14:21 30.70930° -81.29210° 2 min 0.02 0.04
90°
Apr 15, 14:19 30.70930° -81.29212° 8 min 0.02 0.01
270°
Apr 15, 14:11 30.70930° -81.29210° 2 min 0.02 0.00
Apr 15, 14:09 30.70930° -81.29210° 8 min 0.02 0.01
270°
Apr 15, 14:01 30.70930° -81.29208° 2 min 0.02 0.00
Apr 15, 13:59 30.70930° -81.29208° 7 min 0.02 0.01
221°
Apr 15, 13:51 30.70932° -81.29205° 2 min 0.02 0.00
Apr 15, 13:49 30.70932° -81.29205° 8 min 0.02 0.01
Apr 15, 13:41 30.70930° -81.29205° 2 min 0.02 0.00
Apr 15, 13:39 30.70930° -81.29205° 8 min 0.02 0.01
270°
Apr 15, 13:31 30.70930° -81.29203° 2 min 0.02 0.00
Apr 15, 13:29 30.70930° -81.29203° 8 min 0.02 0.01
210°
Apr 15, 13:21 30.70932° -81.29202° 2 min 0.02 0.00
Apr 15, 13:19 30.70932° -81.29202° 8 min 0.02 0.01
Apr 15, 13:11 30.70930° -81.29202° 2 min 0.02 0.00
Apr 15, 13:09 30.70930° -81.29202° 8 min 0.02 0.01
270°
Apr 15, 13:01 30.70930° -81.29199° 2 min 0.02 0.04
270°
Apr 15, 12:59 30.70930° -81.29197° 8 min 0.02 0.02
298°
Apr 15, 12:51 30.70928° -81.29192° 2 min 0.02 0.00
Apr 15, 12:49 30.70928° -81.29192° 8 min 0.02 0.00
Apr 15, 12:41 30.70928° -81.29192° 2 min 0.02 0.00
Apr 15, 12:39 30.70928° -81.29192° 8 min 0.02 0.00
Apr 15, 12:31 30.70928° -81.29192° 2 min 0.02 0.00
Apr 15, 12:29 30.70928° -81.29192° 8 min 0.02 0.01
270°
Apr 15, 12:21 30.70928° -81.29191° 2 min 0.02 0.00
Apr 15, 12:19 30.70928° -81.29191° 8 min 0.02 0.01
300°
Apr 15, 12:11 30.70927° -81.29189° 2 min 0.02 0.05
317°
Apr 15, 12:09 30.70925° -81.29186° 8 min 0.02 0.00
Apr 15, 12:01 30.70925° -81.29186° 2 min 0.02 0.02
Apr 15, 11:59 30.70923° -81.29186° 8 min 0.02 0.01
180°
Apr 15, 11:51 30.70925° -81.29186° 2 min 0.02 0.02
Apr 15, 11:49 30.70923° -81.29186° 8 min 0.02 0.00
Apr 15, 11:41 30.70923° -81.29186° 2 min 0.02 0.02
180°
Apr 15, 11:39 30.70925° -81.29186° 8 min 0.02 0.02
329°
Apr 15, 11:31 30.70921° -81.29184° 2 min 0.02 0.00
Apr 15, 11:29 30.70921° -81.29184° 8 min 0.02 0.00
Apr 15, 11:21 30.70921° -81.29184° 2 min 0.02 0.04
270°
Apr 15, 11:19 30.70921° -81.29182° 8 min 0.02 0.02
338°
Apr 15, 11:11 30.70918° -81.29180° 2 min 0.02 0.00
Apr 15, 11:09 30.70918° -81.29180° 8 min 0.02 0.01
270°
Apr 15, 11:01 30.70918° -81.29178° 2 min 0.02 0.04
64°
Apr 15, 10:59 30.70917° -81.29180° 8 min 0.02 0.01
270°
Apr 15, 10:51 30.70917° -81.29178° 2 min 0.02 0.00
Apr 15, 10:49 30.70917° -81.29178° 8 min 0.02 0.00
Apr 15, 10:41 30.70917° -81.29178° 2 min 0.02 0.00
Apr 15, 10:39 30.70917° -81.29178° 8 min 0.02 0.01
Apr 15, 10:31 30.70914° -81.29178° 2 min 0.02 0.00
Apr 15, 10:29 30.70914° -81.29178° 7 min 0.02 0.01
180°
Apr 15, 10:21 30.70915° -81.29178° 2 min 0.02 0.02
Apr 15, 10:19 30.70914° -81.29178° 8 min 0.02 0.00
Apr 15, 10:11 30.70914° -81.29178° 2 min 0.02 0.04
Apr 15, 10:09 30.70912° -81.29178° 8 min 0.02 0.00
Apr 15, 10:01 30.70912° -81.29178° 2 min 0.02 0.00
Apr 15, 09:59 30.70912° -81.29178° 8 min 0.02 0.01
Apr 15, 09:51 30.70910° -81.29178° 2 min 0.02 0.04
180°
Apr 15, 09:49 30.70912° -81.29178° 8 min 0.02 0.01
Apr 15, 09:41 30.70910° -81.29178° 2 min 0.02 0.04
270°
Apr 15, 09:39 30.70910° -81.29176° 8 min 0.02 0.00
Apr 15, 09:31 30.70910° -81.29176° 2 min 0.02 0.00
Apr 15, 09:29 30.70910° -81.29176° 8 min 0.02 0.00
Apr 15, 09:21 30.70910° -81.29176° 2 min 0.02 0.04
90°
Apr 15, 09:19 30.70910° -81.29178° 8 min 0.02 0.01
270°
Apr 15, 09:11 30.70910° -81.29176° 2 min 0.02 0.00
Apr 15, 09:09 30.70910° -81.29176° 8 min 0.02 0.01
90°
Apr 15, 09:01 30.70910° -81.29178° 2 min 0.02 0.00
Apr 15, 08:59 30.70910° -81.29178° 8 min 0.02 0.02
180°
Apr 15, 08:51 30.70914° -81.29178° 2 min 0.02 0.00
Apr 15, 08:49 30.70914° -81.29178° 8 min 0.02 0.01
180°
Apr 15, 08:41 30.70915° -81.29178° 2 min 0.02 0.00
Apr 15, 08:39 30.70915° -81.29178° 8 min 0.02 0.01
Apr 15, 08:31 30.70914° -81.29178° 2 min 0.02 0.02
180°
Apr 15, 08:29 30.70915° -81.29178° 8 min 0.02 0.00
Apr 15, 08:21 30.70915° -81.29178° 2 min 0.02 0.00
Apr 15, 08:19 30.70915° -81.29178° 8 min 0.02 0.01
180°
Apr 15, 08:11 30.70917° -81.29178° 2 min 0.02 0.00
Apr 15, 08:09 30.70917° -81.29178° 8 min 0.02 0.01
180°
Apr 15, 08:01 30.70920° -81.29178° 2 min 0.02 0.00
Apr 15, 07:59 30.70920° -81.29178° 8 min 0.02 0.01
116°
Apr 15, 07:51 30.70921° -81.29180° 2 min 0.02 0.04
180°
Apr 15, 07:49 30.70923° -81.29180° 8 min 0.02 0.00
Apr 15, 07:41 30.70923° -81.29180° 2 min 0.02 0.00
Apr 15, 07:39 30.70923° -81.29180° 8 min 0.02 0.01
180°
Apr 15, 07:31 30.70925° -81.29180° 2 min 0.02 0.02
90°
Apr 15, 07:29 30.70925° -81.29182° 8 min 0.02 0.01
180°
Apr 15, 07:21 30.70927° -81.29182° 2 min 0.02 0.04
90°
Apr 15, 07:19 30.70927° -81.29184° 8 min 0.02 0.01
180°
Apr 15, 07:11 30.70928° -81.29184° 2 min 0.02 0.04
90°
Apr 15, 07:09 30.70928° -81.29186° 8 min 0.02 0.01
180°
Apr 15, 07:01 30.70930° -81.29186° 1 min 0.02 0.04
Apr 15, 06:59 30.70928° -81.29186° 8 min 0.02 0.00
Apr 15, 06:51 30.70928° -81.29186° 1 min 0.02 0.05
137°
Apr 15, 06:49 30.70930° -81.29189° 8 min 0.02 0.01
139°
Apr 15, 06:41 30.70932° -81.29191° 1 min 0.02 0.05
319°
Apr 15, 06:39 30.70930° -81.29189° 8 min 0.02 0.01
90°
Apr 15, 06:31 30.70930° -81.29191° 2 min 0.02 0.04
180°
Apr 15, 06:29 30.70932° -81.29191° 8 min 0.02 0.01
90°
Apr 15, 06:21 30.70932° -81.29192° 2 min 0.02 0.00
Apr 15, 06:19 30.70932° -81.29192° 8 min 0.02 0.00
Apr 15, 06:11 30.70932° -81.29192° 2 min 0.02 0.00
Apr 15, 06:09 30.70932° -81.29192° 8 min 0.02 0.00
Apr 15, 06:01 30.70932° -81.29192° 2 min 0.02 0.04
90°
Apr 15, 05:59 30.70932° -81.29195° 8 min 0.02 0.00
Apr 15, 05:51 30.70932° -81.29195° 2 min 0.02 0.04
90°
Apr 15, 05:49 30.70932° -81.29197° 8 min 0.02 0.00
Apr 15, 05:41 30.70932° -81.29197° 2 min 0.02 0.00
Apr 15, 05:39 30.70932° -81.29197° 8 min 0.02 0.01
116°
Apr 15, 05:31 30.70933° -81.29199° 2 min 0.02 0.04
90°
Apr 15, 05:29 30.70933° -81.29202° 8 min 0.02 0.01
180°
Apr 15, 05:21 30.70935° -81.29202° 2 min 0.02 0.00
Apr 15, 05:19 30.70935° -81.29202° 8 min 0.02 0.00
Apr 15, 05:11 30.70935° -81.29202° 2 min 0.02 0.00
Apr 15, 05:09 30.70935° -81.29202° 8 min 0.02 0.01
90°
Apr 15, 05:01 30.70935° -81.29203° 2 min 0.02 0.00
Apr 15, 04:59 30.70935° -81.29203° 8 min 0.02 0.01
90°
Apr 15, 04:51 30.70935° -81.29205° 2 min 0.02 0.00
Apr 15, 04:49 30.70935° -81.29205° 8 min 0.02 0.01
90°
Apr 15, 04:41 30.70935° -81.29208° 2 min 0.02 0.00
Apr 15, 04:39 30.70935° -81.29208° 8 min 0.02 0.00
Apr 15, 04:31 30.70935° -81.29208° 2 min 0.02 0.00
Apr 15, 04:29 30.70935° -81.29208° 8 min 0.02 0.02
106°
Apr 15, 04:21 30.70936° -81.29212° 2 min 0.02 0.04
270°
Apr 15, 04:19 30.70936° -81.29210° 8 min 0.02 0.00
Apr 15, 04:11 30.70936° -81.29210° 2 min 0.02 0.00
Apr 15, 04:09 30.70936° -81.29210° 8 min 0.02 0.01
90°
Apr 15, 04:01 30.70936° -81.29212° 2 min 0.02 0.00
Apr 15, 03:59 30.70936° -81.29212° 8 min 0.02 0.01
270°
Apr 15, 03:51 30.70936° -81.29210° 2 min 0.02 0.00
Apr 15, 03:49 30.70936° -81.29210° 8 min 0.02 0.01
Apr 15, 03:41 30.70933° -81.29210° 2 min 0.02 0.00
Apr 15, 03:39 30.70933° -81.29210° 8 min 0.02 0.01
180°
Apr 15, 03:31 30.70935° -81.29210° 1 min 0.02 0.00